SEATTLE-TACOMA INTL

KSEA (SEA)
Seattle, Washington
Towered

Vatsim Metar:
KSEA 250953Z 02008KT 10SM CLR 13/08 A2991 RMK AO2 SLP132 T01280083